sensor_id;sensor_type;location;lat;lon;timestamp;P1;durP1;ratioP1;P2;durP2;ratioP2
76433;SDS011;65265;53.200;6.080;2023-05-07T00:01:28;19.08;;;13.10;;
76433;SDS011;65265;53.200;6.080;2023-05-07T00:06:20;22.00;;;15.73;;
76433;SDS011;65265;53.200;6.080;2023-05-07T00:11:13;19.23;;;14.45;;
76433;SDS011;65265;53.200;6.080;2023-05-07T00:16:04;17.45;;;11.70;;
76433;SDS011;65265;53.200;6.080;2023-05-07T00:20:56;18.75;;;14.10;;
76433;SDS011;65265;53.200;6.080;2023-05-07T00:25:47;23.65;;;14.82;;
76433;SDS011;65265;53.200;6.080;2023-05-07T00:30:40;21.02;;;14.27;;
76433;SDS011;65265;53.200;6.080;2023-05-07T00:35:32;24.20;;;14.27;;
76433;SDS011;65265;53.200;6.080;2023-05-07T00:40:23;21.02;;;15.32;;
76433;SDS011;65265;53.200;6.080;2023-05-07T00:45:15;20.15;;;14.90;;
76433;SDS011;65265;53.200;6.080;2023-05-07T00:50:10;21.10;;;14.73;;
76433;SDS011;65265;53.200;6.080;2023-05-07T00:55:03;19.00;;;13.77;;
76433;SDS011;65265;53.200;6.080;2023-05-07T00:59:57;20.15;;;15.15;;
76433;SDS011;65265;53.200;6.080;2023-05-07T01:04:49;20.35;;;15.20;;
76433;SDS011;65265;53.200;6.080;2023-05-07T01:09:41;23.48;;;15.73;;
76433;SDS011;65265;53.200;6.080;2023-05-07T01:14:33;22.65;;;15.07;;
76433;SDS011;65265;53.200;6.080;2023-05-07T01:19:25;20.33;;;13.52;;
76433;SDS011;65265;53.200;6.080;2023-05-07T01:24:19;20.65;;;14.82;;
76433;SDS011;65265;53.200;6.080;2023-05-07T01:29:11;23.25;;;14.55;;
76433;SDS011;65265;53.200;6.080;2023-05-07T01:34:02;22.50;;;16.02;;
76433;SDS011;65265;53.200;6.080;2023-05-07T01:38:55;24.80;;;15.95;;
76433;SDS011;65265;53.200;6.080;2023-05-07T01:43:50;22.92;;;16.90;;
76433;SDS011;65265;53.200;6.080;2023-05-07T01:48:43;21.48;;;15.35;;
76433;SDS011;65265;53.200;6.080;2023-05-07T01:53:36;26.10;;;17.75;;
76433;SDS011;65265;53.200;6.080;2023-05-07T01:58:28;27.33;;;17.50;;
76433;SDS011;65265;53.200;6.080;2023-05-07T02:03:21;19.58;;;14.23;;
76433;SDS011;65265;53.200;6.080;2023-05-07T02:17:58;23.40;;;17.80;;
76433;SDS011;65265;53.200;6.080;2023-05-07T02:22:52;23.77;;;17.02;;
76433;SDS011;65265;53.200;6.080;2023-05-07T02:27:44;25.00;;;17.35;;
76433;SDS011;65265;53.200;6.080;2023-05-07T02:32:35;25.45;;;16.15;;
76433;SDS011;65265;53.200;6.080;2023-05-07T02:37:26;24.33;;;16.10;;
76433;SDS011;65265;53.200;6.080;2023-05-07T02:42:19;25.52;;;16.95;;
76433;SDS011;65265;53.200;6.080;2023-05-07T02:47:11;24.88;;;17.10;;
76433;SDS011;65265;53.200;6.080;2023-05-07T02:52:03;32.05;;;17.73;;
76433;SDS011;65265;53.200;6.080;2023-05-07T02:56:54;29.42;;;19.15;;
76433;SDS011;65265;53.200;6.080;2023-05-07T03:01:47;23.58;;;15.75;;
76433;SDS011;65265;53.200;6.080;2023-05-07T03:06:39;24.88;;;16.88;;
76433;SDS011;65265;53.200;6.080;2023-05-07T03:11:30;29.98;;;18.58;;
76433;SDS011;65265;53.200;6.080;2023-05-07T03:16:22;30.10;;;19.17;;
76433;SDS011;65265;53.200;6.080;2023-05-07T03:21:14;28.13;;;19.33;;
76433;SDS011;65265;53.200;6.080;2023-05-07T03:26:06;27.77;;;19.55;;
76433;SDS011;65265;53.200;6.080;2023-05-07T03:30:57;32.60;;;21.85;;
76433;SDS011;65265;53.200;6.080;2023-05-07T03:35:49;33.20;;;19.38;;
76433;SDS011;65265;53.200;6.080;2023-05-07T03:40:42;28.80;;;16.35;;
76433;SDS011;65265;53.200;6.080;2023-05-07T03:45:33;31.35;;;20.10;;
76433;SDS011;65265;53.200;6.080;2023-05-07T03:50:24;33.13;;;20.27;;
76433;SDS011;65265;53.200;6.080;2023-05-07T03:55:16;33.88;;;19.95;;
76433;SDS011;65265;53.200;6.080;2023-05-07T04:00:09;36.03;;;21.88;;
76433;SDS011;65265;53.200;6.080;2023-05-07T04:05:02;32.42;;;22.67;;
76433;SDS011;65265;53.200;6.080;2023-05-07T04:09:53;34.20;;;20.73;;
76433;SDS011;65265;53.200;6.080;2023-05-07T04:14:45;38.42;;;22.20;;
76433;SDS011;65265;53.200;6.080;2023-05-07T04:19:39;34.90;;;20.88;;
76433;SDS011;65265;53.200;6.080;2023-05-07T04:24:35;37.75;;;23.20;;
76433;SDS011;65265;53.200;6.080;2023-05-07T04:29:26;37.20;;;24.63;;
76433;SDS011;65265;53.200;6.080;2023-05-07T04:34:18;34.47;;;22.45;;
76433;SDS011;65265;53.200;6.080;2023-05-07T04:39:12;36.88;;;21.17;;
76433;SDS011;65265;53.200;6.080;2023-05-07T04:44:03;37.30;;;23.00;;
76433;SDS011;65265;53.200;6.080;2023-05-07T04:48:55;36.03;;;22.48;;
76433;SDS011;65265;53.200;6.080;2023-05-07T04:53:47;42.88;;;23.23;;
76433;SDS011;65265;53.200;6.080;2023-05-07T04:58:40;42.78;;;23.95;;
76433;SDS011;65265;53.200;6.080;2023-05-07T05:03:31;38.25;;;22.42;;
76433;SDS011;65265;53.200;6.080;2023-05-07T05:08:23;38.13;;;23.92;;
76433;SDS011;65265;53.200;6.080;2023-05-07T05:13:14;36.20;;;21.65;;
76433;SDS011;65265;53.200;6.080;2023-05-07T05:18:07;37.75;;;23.10;;
76433;SDS011;65265;53.200;6.080;2023-05-07T05:22:58;38.40;;;21.92;;
76433;SDS011;65265;53.200;6.080;2023-05-07T05:27:50;33.13;;;21.67;;
76433;SDS011;65265;53.200;6.080;2023-05-07T05:32:41;33.58;;;20.58;;
76433;SDS011;65265;53.200;6.080;2023-05-07T05:37:34;36.40;;;18.85;;
76433;SDS011;65265;53.200;6.080;2023-05-07T05:42:25;34.00;;;21.35;;
76433;SDS011;65265;53.200;6.080;2023-05-07T05:47:17;33.17;;;20.88;;
76433;SDS011;65265;53.200;6.080;2023-05-07T05:52:09;33.15;;;20.30;;
76433;SDS011;65265;53.200;6.080;2023-05-07T05:57:05;30.45;;;20.65;;
76433;SDS011;65265;53.200;6.080;2023-05-07T06:01:56;30.02;;;20.55;;
76433;SDS011;65265;53.200;6.080;2023-05-07T06:06:48;33.92;;;22.15;;
76433;SDS011;65265;53.200;6.080;2023-05-07T06:11:39;28.95;;;19.30;;
76433;SDS011;65265;53.200;6.080;2023-05-07T06:16:32;27.92;;;18.85;;
76433;SDS011;65265;53.200;6.080;2023-05-07T06:36:06;32.67;;;19.48;;
76433;SDS011;65265;53.200;6.080;2023-05-07T06:40:58;25.77;;;16.70;;
76433;SDS011;65265;53.200;6.080;2023-05-07T06:45:49;25.67;;;17.60;;
76433;SDS011;65265;53.200;6.080;2023-05-07T06:50:41;27.38;;;18.88;;
76433;SDS011;65265;53.200;6.080;2023-05-07T06:55:34;29.45;;;17.27;;
76433;SDS011;65265;53.200;6.080;2023-05-07T07:00:25;27.13;;;18.25;;
76433;SDS011;65265;53.200;6.080;2023-05-07T07:05:17;24.63;;;17.17;;
76433;SDS011;65265;53.200;6.080;2023-05-07T07:10:09;24.52;;;15.95;;
76433;SDS011;65265;53.200;6.080;2023-05-07T07:15:02;26.98;;;18.10;;
76433;SDS011;65265;53.200;6.080;2023-05-07T07:19:54;26.00;;;16.98;;
76433;SDS011;65265;53.200;6.080;2023-05-07T07:24:45;24.95;;;17.77;;
76433;SDS011;65265;53.200;6.080;2023-05-07T07:29:36;26.95;;;17.48;;
76433;SDS011;65265;53.200;6.080;2023-05-07T07:34:29;23.67;;;16.15;;
76433;SDS011;65265;53.200;6.080;2023-05-07T07:39:21;24.05;;;15.93;;
76433;SDS011;65265;53.200;6.080;2023-05-07T07:44:12;24.30;;;16.58;;
76433;SDS011;65265;53.200;6.080;2023-05-07T07:49:04;26.30;;;18.00;;
76433;SDS011;65265;53.200;6.080;2023-05-07T07:53:56;22.63;;;15.48;;
76433;SDS011;65265;53.200;6.080;2023-05-07T08:08:30;23.42;;;16.95;;
76433;SDS011;65265;53.200;6.080;2023-05-07T08:13:23;27.08;;;18.27;;
76433;SDS011;65265;53.200;6.080;2023-05-07T08:18:15;23.02;;;14.30;;
76433;SDS011;65265;53.200;6.080;2023-05-07T08:23:06;26.55;;;15.88;;
76433;SDS011;65265;53.200;6.080;2023-05-07T08:27:58;23.52;;;16.50;;
76433;SDS011;65265;53.200;6.080;2023-05-07T08:32:51;22.33;;;15.43;;
76433;SDS011;65265;53.200;6.080;2023-05-07T08:37:42;18.00;;;13.93;;
76433;SDS011;65265;53.200;6.080;2023-05-07T08:42:35;24.30;;;17.23;;
76433;SDS011;65265;53.200;6.080;2023-05-07T08:47:29;24.35;;;16.13;;
76433;SDS011;65265;53.200;6.080;2023-05-07T08:52:26;22.45;;;15.68;;
76433;SDS011;65265;53.200;6.080;2023-05-07T08:57:18;23.98;;;16.13;;
76433;SDS011;65265;53.200;6.080;2023-05-07T09:02:09;22.98;;;16.63;;
76433;SDS011;65265;53.200;6.080;2023-05-07T09:07:02;26.42;;;18.17;;
76433;SDS011;65265;53.200;6.080;2023-05-07T09:11:57;22.00;;;15.70;;
76433;SDS011;65265;53.200;6.080;2023-05-07T09:16:51;25.42;;;16.15;;
76433;SDS011;65265;53.200;6.080;2023-05-07T09:21:44;26.05;;;16.60;;
76433;SDS011;65265;53.200;6.080;2023-05-07T09:26:35;23.55;;;16.00;;
76433;SDS011;65265;53.200;6.080;2023-05-07T09:31:28;21.63;;;15.32;;
76433;SDS011;65265;53.200;6.080;2023-05-07T09:36:20;23.88;;;16.88;;
76433;SDS011;65265;53.200;6.080;2023-05-07T09:41:12;24.55;;;16.05;;
76433;SDS011;65265;53.200;6.080;2023-05-07T09:46:06;18.85;;;13.95;;
76433;SDS011;65265;53.200;6.080;2023-05-07T09:51:01;22.80;;;17.65;;
76433;SDS011;65265;53.200;6.080;2023-05-07T09:55:53;24.63;;;17.23;;
76433;SDS011;65265;53.200;6.080;2023-05-07T10:00:46;26.35;;;15.93;;
76433;SDS011;65265;53.200;6.080;2023-05-07T10:05:39;18.30;;;12.95;;
76433;SDS011;65265;53.200;6.080;2023-05-07T10:10:33;24.88;;;16.27;;
76433;SDS011;65265;53.200;6.080;2023-05-07T10:15:25;22.75;;;16.75;;
76433;SDS011;65265;53.200;6.080;2023-05-07T10:20:17;22.80;;;17.30;;
76433;SDS011;65265;53.200;6.080;2023-05-07T10:25:09;21.25;;;16.55;;
76433;SDS011;65265;53.200;6.080;2023-05-07T10:30:12;24.80;;;16.02;;
76433;SDS011;65265;53.200;6.080;2023-05-07T10:35:12;20.05;;;15.30;;
76433;SDS011;65265;53.200;6.080;2023-05-07T10:40:08;22.33;;;16.55;;
76433;SDS011;65265;53.200;6.080;2023-05-07T10:45:13;22.48;;;16.33;;
76433;SDS011;65265;53.200;6.080;2023-05-07T10:50:22;21.10;;;16.40;;
76433;SDS011;65265;53.200;6.080;2023-05-07T10:55:20;18.85;;;14.95;;
76433;SDS011;65265;53.200;6.080;2023-05-07T11:05:34;17.48;;;13.18;;
76433;SDS011;65265;53.200;6.080;2023-05-07T11:10:39;22.15;;;15.57;;
76433;SDS011;65265;53.200;6.080;2023-05-07T11:15:39;19.52;;;13.88;;
76433;SDS011;65265;53.200;6.080;2023-05-07T11:20:53;20.48;;;14.20;;
76433;SDS011;65265;53.200;6.080;2023-05-07T11:25:47;19.73;;;13.93;;
76433;SDS011;65265;53.200;6.080;2023-05-07T11:30:38;20.75;;;14.30;;
76433;SDS011;65265;53.200;6.080;2023-05-07T11:35:34;19.15;;;12.65;;
76433;SDS011;65265;53.200;6.080;2023-05-07T11:40:26;19.58;;;14.65;;
76433;SDS011;65265;53.200;6.080;2023-05-07T11:50:15;15.18;;;11.45;;
76433;SDS011;65265;53.200;6.080;2023-05-07T11:55:07;18.20;;;15.10;;
76433;SDS011;65265;53.200;6.080;2023-05-07T11:59:59;22.27;;;14.75;;
76433;SDS011;65265;53.200;6.080;2023-05-07T12:04:53;16.23;;;13.50;;
76433;SDS011;65265;53.200;6.080;2023-05-07T12:09:47;17.92;;;14.45;;
76433;SDS011;65265;53.200;6.080;2023-05-07T12:14:39;16.35;;;12.88;;
76433;SDS011;65265;53.200;6.080;2023-05-07T12:19:30;19.85;;;14.90;;
76433;SDS011;65265;53.200;6.080;2023-05-07T12:24:22;17.33;;;14.15;;
76433;SDS011;65265;53.200;6.080;2023-05-07T12:29:15;17.50;;;13.93;;
76433;SDS011;65265;53.200;6.080;2023-05-07T12:34:07;18.90;;;14.38;;
76433;SDS011;65265;53.200;6.080;2023-05-07T12:38:58;14.35;;;12.18;;
76433;SDS011;65265;53.200;6.080;2023-05-07T12:43:50;16.33;;;12.80;;
76433;SDS011;65265;53.200;6.080;2023-05-07T12:48:49;14.38;;;12.45;;
76433;SDS011;65265;53.200;6.080;2023-05-07T12:53:40;15.82;;;12.57;;
76433;SDS011;65265;53.200;6.080;2023-05-07T12:58:33;14.20;;;10.70;;
76433;SDS011;65265;53.200;6.080;2023-05-07T13:03:26;15.13;;;11.98;;
76433;SDS011;65265;53.200;6.080;2023-05-07T13:08:27;15.73;;;13.02;;
76433;SDS011;65265;53.200;6.080;2023-05-07T13:13:19;15.90;;;12.35;;
76433;SDS011;65265;53.200;6.080;2023-05-07T13:18:11;14.77;;;11.95;;
76433;SDS011;65265;53.200;6.080;2023-05-07T13:23:02;14.48;;;12.88;;
76433;SDS011;65265;53.200;6.080;2023-05-07T13:27:56;17.25;;;14.20;;
76433;SDS011;65265;53.200;6.080;2023-05-07T13:32:47;14.13;;;12.65;;
76433;SDS011;65265;53.200;6.080;2023-05-07T13:37:39;15.75;;;13.30;;
76433;SDS011;65265;53.200;6.080;2023-05-07T13:42:31;12.23;;;10.88;;
76433;SDS011;65265;53.200;6.080;2023-05-07T13:47:24;14.10;;;12.18;;
76433;SDS011;65265;53.200;6.080;2023-05-07T13:52:15;10.98;;;9.85;;
76433;SDS011;65265;53.200;6.080;2023-05-07T13:57:07;14.00;;;11.77;;
76433;SDS011;65265;53.200;6.080;2023-05-07T14:01:58;13.35;;;11.93;;
76433;SDS011;65265;53.200;6.080;2023-05-07T14:11:42;17.30;;;11.23;;
76433;SDS011;65265;53.200;6.080;2023-05-07T14:21:25;12.00;;;10.27;;
76433;SDS011;65265;53.200;6.080;2023-05-07T14:26:18;12.73;;;9.02;;
76433;SDS011;65265;53.200;6.080;2023-05-07T14:31:10;15.05;;;12.45;;
76433;SDS011;65265;53.200;6.080;2023-05-07T14:36:02;12.20;;;9.90;;
76433;SDS011;65265;53.200;6.080;2023-05-07T14:40:54;12.57;;;10.80;;
76433;SDS011;65265;53.200;6.080;2023-05-07T14:45:47;15.73;;;12.88;;
76433;SDS011;65265;53.200;6.080;2023-05-07T14:50:39;15.27;;;12.48;;
76433;SDS011;65265;53.200;6.080;2023-05-07T14:55:31;13.02;;;10.88;;
76433;SDS011;65265;53.200;6.080;2023-05-07T15:00:22;12.95;;;11.60;;
76433;SDS011;65265;53.200;6.080;2023-05-07T15:10:08;11.70;;;10.30;;
76433;SDS011;65265;53.200;6.080;2023-05-07T15:15:00;10.35;;;9.20;;
76433;SDS011;65265;53.200;6.080;2023-05-07T15:19:52;12.20;;;10.90;;
76433;SDS011;65265;53.200;6.080;2023-05-07T15:29:36;11.55;;;10.43;;
76433;SDS011;65265;53.200;6.080;2023-05-07T15:34:27;12.95;;;11.25;;
76433;SDS011;65265;53.200;6.080;2023-05-07T15:39:20;11.73;;;9.00;;
76433;SDS011;65265;53.200;6.080;2023-05-07T15:44:13;14.45;;;11.77;;
76433;SDS011;65265;53.200;6.080;2023-05-07T15:49:05;16.23;;;11.95;;
76433;SDS011;65265;53.200;6.080;2023-05-07T15:53:57;14.00;;;12.63;;
76433;SDS011;65265;53.200;6.080;2023-05-07T15:58:48;11.80;;;10.43;;
76433;SDS011;65265;53.200;6.080;2023-05-07T16:03:41;11.88;;;10.07;;
76433;SDS011;65265;53.200;6.080;2023-05-07T16:08:32;11.93;;;10.70;;
76433;SDS011;65265;53.200;6.080;2023-05-07T16:13:24;13.85;;;10.63;;
76433;SDS011;65265;53.200;6.080;2023-05-07T16:18:15;12.95;;;10.95;;
76433;SDS011;65265;53.200;6.080;2023-05-07T16:23:08;11.50;;;10.35;;
76433;SDS011;65265;53.200;6.080;2023-05-07T16:28:01;10.85;;;9.55;;
76433;SDS011;65265;53.200;6.080;2023-05-07T16:32:53;11.93;;;10.30;;
76433;SDS011;65265;53.200;6.080;2023-05-07T16:37:44;12.00;;;10.77;;
76433;SDS011;65265;53.200;6.080;2023-05-07T16:42:37;9.35;;;8.45;;
76433;SDS011;65265;53.200;6.080;2023-05-07T16:47:29;11.63;;;10.45;;
76433;SDS011;65265;53.200;6.080;2023-05-07T16:52:20;10.77;;;9.73;;
76433;SDS011;65265;53.200;6.080;2023-05-07T16:57:12;13.32;;;10.48;;
76433;SDS011;65265;53.200;6.080;2023-05-07T17:02:05;11.35;;;10.25;;
76433;SDS011;65265;53.200;6.080;2023-05-07T17:06:56;12.23;;;10.88;;
76433;SDS011;65265;53.200;6.080;2023-05-07T17:11:48;12.90;;;11.60;;
76433;SDS011;65265;53.200;6.080;2023-05-07T17:16:39;13.95;;;11.82;;
76433;SDS011;65265;53.200;6.080;2023-05-07T17:21:32;12.95;;;11.65;;
76433;SDS011;65265;53.200;6.080;2023-05-07T17:26:24;12.02;;;10.38;;
76433;SDS011;65265;53.200;6.080;2023-05-07T17:31:16;13.23;;;11.93;;
76433;SDS011;65265;53.200;6.080;2023-05-07T17:36:08;12.60;;;10.30;;
76433;SDS011;65265;53.200;6.080;2023-05-07T17:41:01;13.48;;;10.80;;
76433;SDS011;65265;53.200;6.080;2023-05-07T17:45:52;12.20;;;9.75;;
76433;SDS011;65265;53.200;6.080;2023-05-07T17:50:43;14.77;;;13.27;;
76433;SDS011;65265;53.200;6.080;2023-05-07T17:55:35;14.23;;;12.40;;
76433;SDS011;65265;53.200;6.080;2023-05-07T18:00:32;11.88;;;10.68;;
76433;SDS011;65265;53.200;6.080;2023-05-07T18:05:25;14.57;;;13.07;;
76433;SDS011;65265;53.200;6.080;2023-05-07T18:10:16;14.32;;;12.27;;
76433;SDS011;65265;53.200;6.080;2023-05-07T18:15:08;14.30;;;11.90;;
76433;SDS011;65265;53.200;6.080;2023-05-07T18:20:01;14.52;;;12.63;;
76433;SDS011;65265;53.200;6.080;2023-05-07T18:24:54;14.07;;;12.27;;
76433;SDS011;65265;53.200;6.080;2023-05-07T18:29:46;14.23;;;12.70;;
76433;SDS011;65265;53.200;6.080;2023-05-07T18:34:37;13.48;;;12.07;;
76433;SDS011;65265;53.200;6.080;2023-05-07T18:39:30;14.93;;;12.57;;
76433;SDS011;65265;53.200;6.080;2023-05-07T18:44:22;16.45;;;13.65;;
76433;SDS011;65265;53.200;6.080;2023-05-07T18:49:13;16.25;;;14.10;;
76433;SDS011;65265;53.200;6.080;2023-05-07T18:54:05;16.83;;;13.77;;
76433;SDS011;65265;53.200;6.080;2023-05-07T18:58:58;15.80;;;11.75;;
76433;SDS011;65265;53.200;6.080;2023-05-07T19:03:49;15.57;;;12.88;;
76433;SDS011;65265;53.200;6.080;2023-05-07T19:08:41;17.02;;;14.27;;
76433;SDS011;65265;53.200;6.080;2023-05-07T19:13:32;17.92;;;12.80;;
76433;SDS011;65265;53.200;6.080;2023-05-07T19:18:27;14.63;;;13.00;;
76433;SDS011;65265;53.200;6.080;2023-05-07T19:23:20;14.70;;;12.32;;
76433;SDS011;65265;53.200;6.080;2023-05-07T19:28:12;17.02;;;14.00;;
76433;SDS011;65265;53.200;6.080;2023-05-07T19:33:03;13.27;;;11.88;;
76433;SDS011;65265;53.200;6.080;2023-05-07T19:37:56;11.20;;;8.77;;
76433;SDS011;65265;53.200;6.080;2023-05-07T19:42:48;14.20;;;12.13;;
76433;SDS011;65265;53.200;6.080;2023-05-07T19:47:39;15.27;;;13.65;;
76433;SDS011;65265;53.200;6.080;2023-05-07T19:52:31;13.10;;;10.93;;
76433;SDS011;65265;53.200;6.080;2023-05-07T19:57:24;17.65;;;13.82;;
76433;SDS011;65265;53.200;6.080;2023-05-07T20:02:15;21.83;;;14.35;;
76433;SDS011;65265;53.200;6.080;2023-05-07T20:07:06;16.33;;;13.18;;
76433;SDS011;65265;53.200;6.080;2023-05-07T20:11:58;15.60;;;12.65;;
76433;SDS011;65265;53.200;6.080;2023-05-07T20:16:51;14.18;;;11.38;;
76433;SDS011;65265;53.200;6.080;2023-05-07T20:21:42;15.50;;;11.48;;
76433;SDS011;65265;53.200;6.080;2023-05-07T20:26:34;13.50;;;10.90;;
76433;SDS011;65265;53.200;6.080;2023-05-07T20:31:25;14.73;;;11.15;;
76433;SDS011;65265;53.200;6.080;2023-05-07T20:36:18;14.98;;;12.57;;
76433;SDS011;65265;53.200;6.080;2023-05-07T20:41:10;13.52;;;12.10;;
76433;SDS011;65265;53.200;6.080;2023-05-07T20:46:03;14.30;;;11.38;;
76433;SDS011;65265;53.200;6.080;2023-05-07T20:50:56;13.02;;;10.77;;
76433;SDS011;65265;53.200;6.080;2023-05-07T20:55:50;14.45;;;11.30;;
76433;SDS011;65265;53.200;6.080;2023-05-07T21:00:42;15.77;;;13.00;;
76433;SDS011;65265;53.200;6.080;2023-05-07T21:05:34;12.77;;;11.10;;
76433;SDS011;65265;53.200;6.080;2023-05-07T21:10:25;11.02;;;9.18;;
76433;SDS011;65265;53.200;6.080;2023-05-07T21:15:18;13.43;;;10.88;;
76433;SDS011;65265;53.200;6.080;2023-05-07T21:20:09;14.18;;;11.98;;
76433;SDS011;65265;53.200;6.080;2023-05-07T21:25:01;15.02;;;12.18;;
76433;SDS011;65265;53.200;6.080;2023-05-07T21:29:53;15.88;;;12.45;;
76433;SDS011;65265;53.200;6.080;2023-05-07T21:34:49;15.05;;;12.27;;
76433;SDS011;65265;53.200;6.080;2023-05-07T21:39:40;16.83;;;13.05;;
76433;SDS011;65265;53.200;6.080;2023-05-07T21:44:32;12.50;;;11.15;;
76433;SDS011;65265;53.200;6.080;2023-05-07T21:49:23;15.85;;;12.30;;
76433;SDS011;65265;53.200;6.080;2023-05-07T21:54:16;13.63;;;11.93;;
76433;SDS011;65265;53.200;6.080;2023-05-07T21:59:08;13.93;;;10.40;;
76433;SDS011;65265;53.200;6.080;2023-05-07T22:03:59;14.65;;;11.93;;
76433;SDS011;65265;53.200;6.080;2023-05-07T22:08:50;11.50;;;10.27;;
76433;SDS011;65265;53.200;6.080;2023-05-07T22:13:43;13.43;;;10.20;;
76433;SDS011;65265;53.200;6.080;2023-05-07T22:18:35;14.30;;;11.85;;
76433;SDS011;65265;53.200;6.080;2023-05-07T22:23:26;13.75;;;11.10;;
76433;SDS011;65265;53.200;6.080;2023-05-07T22:28:18;12.32;;;10.60;;
76433;SDS011;65265;53.200;6.080;2023-05-07T22:33:11;13.65;;;10.18;;
76433;SDS011;65265;53.200;6.080;2023-05-07T22:38:03;13.20;;;10.60;;
76433;SDS011;65265;53.200;6.080;2023-05-07T22:42:54;12.73;;;9.77;;
76433;SDS011;65265;53.200;6.080;2023-05-07T22:47:46;11.65;;;9.25;;
76433;SDS011;65265;53.200;6.080;2023-05-07T22:52:39;12.75;;;10.55;;
76433;SDS011;65265;53.200;6.080;2023-05-07T22:57:30;14.13;;;12.55;;
76433;SDS011;65265;53.200;6.080;2023-05-07T23:02:22;12.77;;;9.98;;
76433;SDS011;65265;53.200;6.080;2023-05-07T23:07:15;12.63;;;10.85;;
76433;SDS011;65265;53.200;6.080;2023-05-07T23:12:08;9.57;;;8.38;;
76433;SDS011;65265;53.200;6.080;2023-05-07T23:17:00;13.70;;;10.65;;
76433;SDS011;65265;53.200;6.080;2023-05-07T23:21:51;10.38;;;7.63;;
76433;SDS011;65265;53.200;6.080;2023-05-07T23:26:43;9.73;;;8.65;;
76433;SDS011;65265;53.200;6.080;2023-05-07T23:31:36;11.82;;;9.18;;
76433;SDS011;65265;53.200;6.080;2023-05-07T23:36:27;10.98;;;9.52;;
76433;SDS011;65265;53.200;6.080;2023-05-07T23:41:19;13.65;;;10.65;;
76433;SDS011;65265;53.200;6.080;2023-05-07T23:46:10;11.75;;;10.05;;
76433;SDS011;65265;53.200;6.080;2023-05-07T23:51:03;10.98;;;9.88;;
76433;SDS011;65265;53.200;6.080;2023-05-07T23:55:55;10.43;;;8.73;;
